sensor_id;sensor_type;location;lat;lon;timestamp;temperature;humidity
47336;DHT22;33068;51.990;5.926;2023-08-17T00:00:57;18.20;99.90
47336;DHT22;33068;51.990;5.926;2023-08-17T00:03:24;18.10;99.90
47336;DHT22;33068;51.990;5.926;2023-08-17T00:05:50;18.00;99.90
47336;DHT22;33068;51.990;5.926;2023-08-17T00:08:16;18.20;99.90
47336;DHT22;33068;51.990;5.926;2023-08-17T00:10:43;18.20;99.90
47336;DHT22;33068;51.990;5.926;2023-08-17T00:13:09;17.90;99.90
47336;DHT22;33068;51.990;5.926;2023-08-17T00:15:36;18.20;99.90
47336;DHT22;33068;51.990;5.926;2023-08-17T00:18:03;18.20;99.90
47336;DHT22;33068;51.990;5.926;2023-08-17T00:20:30;18.20;99.90
47336;DHT22;33068;51.990;5.926;2023-08-17T00:22:56;18.20;99.90
47336;DHT22;33068;51.990;5.926;2023-08-17T00:25:22;18.10;99.90
47336;DHT22;33068;51.990;5.926;2023-08-17T00:27:49;18.10;99.90
47336;DHT22;33068;51.990;5.926;2023-08-17T00:30:16;18.10;99.90
47336;DHT22;33068;51.990;5.926;2023-08-17T00:32:43;18.10;99.90
47336;DHT22;33068;51.990;5.926;2023-08-17T00:35:11;18.10;99.90
47336;DHT22;33068;51.990;5.926;2023-08-17T00:37:37;18.10;99.90
47336;DHT22;33068;51.990;5.926;2023-08-17T00:40:04;18.00;99.90
47336;DHT22;33068;51.990;5.926;2023-08-17T00:42:31;18.00;99.90
47336;DHT22;33068;51.990;5.926;2023-08-17T00:44:58;18.00;99.90
47336;DHT22;33068;51.990;5.926;2023-08-17T00:47:25;17.90;99.90
47336;DHT22;33068;51.990;5.926;2023-08-17T00:49:53;17.90;99.90
47336;DHT22;33068;51.990;5.926;2023-08-17T00:52:20;17.90;99.90
47336;DHT22;33068;51.990;5.926;2023-08-17T00:54:46;17.90;99.90
47336;DHT22;33068;51.990;5.926;2023-08-17T00:57:13;17.90;99.90
47336;DHT22;33068;51.990;5.926;2023-08-17T00:59:40;17.90;99.90
47336;DHT22;33068;51.990;5.926;2023-08-17T01:02:07;17.90;99.90
47336;DHT22;33068;51.990;5.926;2023-08-17T01:04:37;17.60;99.90
47336;DHT22;33068;51.990;5.926;2023-08-17T01:07:04;17.80;99.90
47336;DHT22;33068;51.990;5.926;2023-08-17T01:09:30;17.90;99.90
47336;DHT22;33068;51.990;5.926;2023-08-17T01:12:03;17.60;99.90
47336;DHT22;33068;51.990;5.926;2023-08-17T01:14:35;17.60;99.90
47336;DHT22;33068;51.990;5.926;2023-08-17T01:17:06;17.60;99.90
47336;DHT22;33068;51.990;5.926;2023-08-17T01:19:36;17.30;99.90
47336;DHT22;33068;51.990;5.926;2023-08-17T01:22:05;17.40;99.90
47336;DHT22;33068;51.990;5.926;2023-08-17T01:24:33;17.60;99.90
47336;DHT22;33068;51.990;5.926;2023-08-17T01:27:00;17.60;99.90
47336;DHT22;33068;51.990;5.926;2023-08-17T01:29:26;17.50;99.90
47336;DHT22;33068;51.990;5.926;2023-08-17T01:31:57;17.50;99.90
47336;DHT22;33068;51.990;5.926;2023-08-17T01:34:26;17.60;99.90
47336;DHT22;33068;51.990;5.926;2023-08-17T01:36:57;17.50;99.90
47336;DHT22;33068;51.990;5.926;2023-08-17T01:39:32;17.50;99.90
47336;DHT22;33068;51.990;5.926;2023-08-17T01:42:01;17.50;99.90
47336;DHT22;33068;51.990;5.926;2023-08-17T01:44:28;17.50;99.90
47336;DHT22;33068;51.990;5.926;2023-08-17T01:46:55;17.40;99.90
47336;DHT22;33068;51.990;5.926;2023-08-17T01:49:22;17.40;99.90
47336;DHT22;33068;51.990;5.926;2023-08-17T01:51:48;17.20;99.90
47336;DHT22;33068;51.990;5.926;2023-08-17T01:54:15;17.40;99.90
47336;DHT22;33068;51.990;5.926;2023-08-17T01:56:41;17.30;99.90
47336;DHT22;33068;51.990;5.926;2023-08-17T01:59:09;17.30;99.90
47336;DHT22;33068;51.990;5.926;2023-08-17T02:01:35;17.30;99.90
47336;DHT22;33068;51.990;5.926;2023-08-17T02:04:03;17.30;99.90
47336;DHT22;33068;51.990;5.926;2023-08-17T02:06:30;17.30;99.90
47336;DHT22;33068;51.990;5.926;2023-08-17T02:08:58;17.20;99.90
47336;DHT22;33068;51.990;5.926;2023-08-17T02:11:24;17.20;99.90
47336;DHT22;33068;51.990;5.926;2023-08-17T02:13:51;17.20;99.90
47336;DHT22;33068;51.990;5.926;2023-08-17T02:16:18;17.00;99.90
47336;DHT22;33068;51.990;5.926;2023-08-17T02:18:44;17.20;99.90
47336;DHT22;33068;51.990;5.926;2023-08-17T02:21:11;17.00;99.90
47336;DHT22;33068;51.990;5.926;2023-08-17T02:23:39;17.20;99.90
47336;DHT22;33068;51.990;5.926;2023-08-17T02:26:05;16.90;99.90
47336;DHT22;33068;51.990;5.926;2023-08-17T02:28:32;16.90;99.90
47336;DHT22;33068;51.990;5.926;2023-08-17T02:30:59;17.10;99.90
47336;DHT22;33068;51.990;5.926;2023-08-17T02:33:28;17.10;99.90
47336;DHT22;33068;51.990;5.926;2023-08-17T02:35:54;17.00;99.90
47336;DHT22;33068;51.990;5.926;2023-08-17T02:38:21;16.90;99.90
47336;DHT22;33068;51.990;5.926;2023-08-17T02:40:49;17.00;99.90
47336;DHT22;33068;51.990;5.926;2023-08-17T02:43:15;17.20;99.90
47336;DHT22;33068;51.990;5.926;2023-08-17T02:45:43;17.00;99.90
47336;DHT22;33068;51.990;5.926;2023-08-17T02:48:10;16.90;99.90
47336;DHT22;33068;51.990;5.926;2023-08-17T02:50:37;17.10;99.90
47336;DHT22;33068;51.990;5.926;2023-08-17T02:53:03;17.10;99.90
47336;DHT22;33068;51.990;5.926;2023-08-17T02:55:30;16.70;99.90
47336;DHT22;33068;51.990;5.926;2023-08-17T02:57:56;17.10;99.90
47336;DHT22;33068;51.990;5.926;2023-08-17T03:00:23;16.90;99.90
47336;DHT22;33068;51.990;5.926;2023-08-17T03:02:49;16.70;99.90
47336;DHT22;33068;51.990;5.926;2023-08-17T03:05:15;17.00;99.90
47336;DHT22;33068;51.990;5.926;2023-08-17T03:07:43;17.00;99.90
47336;DHT22;33068;51.990;5.926;2023-08-17T03:10:09;16.90;99.90
47336;DHT22;33068;51.990;5.926;2023-08-17T03:12:36;16.90;99.90
47336;DHT22;33068;51.990;5.926;2023-08-17T03:15:05;16.90;99.90
47336;DHT22;33068;51.990;5.926;2023-08-17T03:17:33;16.80;99.90
47336;DHT22;33068;51.990;5.926;2023-08-17T03:19:59;16.80;99.90
47336;DHT22;33068;51.990;5.926;2023-08-17T03:22:26;16.80;99.90
47336;DHT22;33068;51.990;5.926;2023-08-17T03:24:56;16.80;99.90
47336;DHT22;33068;51.990;5.926;2023-08-17T03:27:22;17.10;99.90
47336;DHT22;33068;51.990;5.926;2023-08-17T03:29:50;16.80;99.90
47336;DHT22;33068;51.990;5.926;2023-08-17T03:32:17;16.70;99.90
47336;DHT22;33068;51.990;5.926;2023-08-17T03:34:45;16.70;99.90
47336;DHT22;33068;51.990;5.926;2023-08-17T03:37:11;16.60;99.90
47336;DHT22;33068;51.990;5.926;2023-08-17T03:39:38;16.60;99.90
47336;DHT22;33068;51.990;5.926;2023-08-17T03:42:05;16.50;99.90
47336;DHT22;33068;51.990;5.926;2023-08-17T03:44:32;16.50;99.90
47336;DHT22;33068;51.990;5.926;2023-08-17T03:46:58;16.60;99.90
47336;DHT22;33068;51.990;5.926;2023-08-17T03:49:25;16.50;99.90
47336;DHT22;33068;51.990;5.926;2023-08-17T03:51:51;16.40;99.90
47336;DHT22;33068;51.990;5.926;2023-08-17T03:54:17;16.20;99.90
47336;DHT22;33068;51.990;5.926;2023-08-17T03:56:44;16.10;99.90
47336;DHT22;33068;51.990;5.926;2023-08-17T03:59:11;16.40;99.90
47336;DHT22;33068;51.990;5.926;2023-08-17T04:01:38;16.40;99.90
47336;DHT22;33068;51.990;5.926;2023-08-17T04:04:04;16.30;99.90
47336;DHT22;33068;51.990;5.926;2023-08-17T04:06:31;16.30;99.90
47336;DHT22;33068;51.990;5.926;2023-08-17T04:08:57;16.30;99.90
47336;DHT22;33068;51.990;5.926;2023-08-17T04:11:23;16.20;99.90
47336;DHT22;33068;51.990;5.926;2023-08-17T04:13:50;16.00;99.90
47336;DHT22;33068;51.990;5.926;2023-08-17T04:16:20;16.20;99.90
47336;DHT22;33068;51.990;5.926;2023-08-17T04:18:47;16.10;99.90
47336;DHT22;33068;51.990;5.926;2023-08-17T04:21:13;16.00;99.90
47336;DHT22;33068;51.990;5.926;2023-08-17T04:23:39;15.80;99.90
47336;DHT22;33068;51.990;5.926;2023-08-17T04:26:06;16.00;99.90
47336;DHT22;33068;51.990;5.926;2023-08-17T04:28:32;16.00;99.90
47336;DHT22;33068;51.990;5.926;2023-08-17T04:30:59;16.00;99.90
47336;DHT22;33068;51.990;5.926;2023-08-17T04:33:29;16.00;99.90
47336;DHT22;33068;51.990;5.926;2023-08-17T04:35:56;16.00;99.90
47336;DHT22;33068;51.990;5.926;2023-08-17T04:38:25;16.00;99.90
47336;DHT22;33068;51.990;5.926;2023-08-17T04:40:51;15.90;99.90
47336;DHT22;33068;51.990;5.926;2023-08-17T04:43:18;15.90;99.90
47336;DHT22;33068;51.990;5.926;2023-08-17T04:45:45;15.70;99.90
47336;DHT22;33068;51.990;5.926;2023-08-17T04:48:14;16.00;99.90
47336;DHT22;33068;51.990;5.926;2023-08-17T04:50:41;16.00;99.90
47336;DHT22;33068;51.990;5.926;2023-08-17T04:53:08;16.00;99.90
47336;DHT22;33068;51.990;5.926;2023-08-17T04:55:34;16.00;99.90
47336;DHT22;33068;51.990;5.926;2023-08-17T04:58:01;16.00;99.90
47336;DHT22;33068;51.990;5.926;2023-08-17T05:00:28;16.10;99.90
47336;DHT22;33068;51.990;5.926;2023-08-17T05:02:55;16.00;99.90
47336;DHT22;33068;51.990;5.926;2023-08-17T05:05:24;16.10;99.90
47336;DHT22;33068;51.990;5.926;2023-08-17T05:07:53;16.10;99.90
47336;DHT22;33068;51.990;5.926;2023-08-17T05:10:19;16.10;99.90
47336;DHT22;33068;51.990;5.926;2023-08-17T05:12:46;15.90;99.90
47336;DHT22;33068;51.990;5.926;2023-08-17T05:15:13;16.10;99.90
47336;DHT22;33068;51.990;5.926;2023-08-17T05:17:40;16.10;99.90
47336;DHT22;33068;51.990;5.926;2023-08-17T05:20:09;16.20;99.90
47336;DHT22;33068;51.990;5.926;2023-08-17T05:22:36;16.30;99.90
47336;DHT22;33068;51.990;5.926;2023-08-17T05:25:04;16.40;99.90
47336;DHT22;33068;51.990;5.926;2023-08-17T05:27:33;16.40;99.90
47336;DHT22;33068;51.990;5.926;2023-08-17T05:30:00;16.40;99.90
47336;DHT22;33068;51.990;5.926;2023-08-17T05:32:27;16.50;99.90
47336;DHT22;33068;51.990;5.926;2023-08-17T05:34:54;16.60;99.90
47336;DHT22;33068;51.990;5.926;2023-08-17T05:37:20;16.70;99.90
47336;DHT22;33068;51.990;5.926;2023-08-17T05:39:46;16.70;99.90
47336;DHT22;33068;51.990;5.926;2023-08-17T05:42:14;16.80;99.90
47336;DHT22;33068;51.990;5.926;2023-08-17T05:44:40;17.00;99.90
47336;DHT22;33068;51.990;5.926;2023-08-17T05:47:07;17.00;99.90
47336;DHT22;33068;51.990;5.926;2023-08-17T05:49:33;17.10;99.90
47336;DHT22;33068;51.990;5.926;2023-08-17T05:52:00;17.10;99.90
47336;DHT22;33068;51.990;5.926;2023-08-17T05:54:27;17.20;99.90
47336;DHT22;33068;51.990;5.926;2023-08-17T05:56:53;17.20;99.90
47336;DHT22;33068;51.990;5.926;2023-08-17T05:59:20;17.00;99.90
47336;DHT22;33068;51.990;5.926;2023-08-17T06:01:48;17.20;99.90
47336;DHT22;33068;51.990;5.926;2023-08-17T06:04:15;17.30;99.90
47336;DHT22;33068;51.990;5.926;2023-08-17T06:06:41;17.30;99.90
47336;DHT22;33068;51.990;5.926;2023-08-17T06:09:08;17.30;99.90
47336;DHT22;33068;51.990;5.926;2023-08-17T06:11:35;17.30;99.90
47336;DHT22;33068;51.990;5.926;2023-08-17T06:14:01;17.30;99.90
47336;DHT22;33068;51.990;5.926;2023-08-17T06:16:29;17.20;99.90
47336;DHT22;33068;51.990;5.926;2023-08-17T06:18:55;17.10;99.90
47336;DHT22;33068;51.990;5.926;2023-08-17T06:21:21;17.10;99.90
47336;DHT22;33068;51.990;5.926;2023-08-17T06:23:48;17.00;99.90
47336;DHT22;33068;51.990;5.926;2023-08-17T06:26:15;16.90;99.90
47336;DHT22;33068;51.990;5.926;2023-08-17T06:28:41;16.80;99.90
47336;DHT22;33068;51.990;5.926;2023-08-17T06:31:07;16.90;99.90
47336;DHT22;33068;51.990;5.926;2023-08-17T06:33:35;16.90;99.90
47336;DHT22;33068;51.990;5.926;2023-08-17T06:36:01;16.80;99.90
47336;DHT22;33068;51.990;5.926;2023-08-17T06:38:27;16.90;99.90
47336;DHT22;33068;51.990;5.926;2023-08-17T06:40:54;16.90;99.90
47336;DHT22;33068;51.990;5.926;2023-08-17T06:43:20;17.00;99.90
47336;DHT22;33068;51.990;5.926;2023-08-17T06:45:47;16.70;99.90
47336;DHT22;33068;51.990;5.926;2023-08-17T06:48:13;17.10;99.90
47336;DHT22;33068;51.990;5.926;2023-08-17T06:50:40;17.30;99.90
47336;DHT22;33068;51.990;5.926;2023-08-17T06:53:07;17.30;99.90
47336;DHT22;33068;51.990;5.926;2023-08-17T06:55:34;17.10;99.90
47336;DHT22;33068;51.990;5.926;2023-08-17T06:58:00;17.50;99.90
47336;DHT22;33068;51.990;5.926;2023-08-17T07:00:27;17.60;99.90
47336;DHT22;33068;51.990;5.926;2023-08-17T07:02:53;17.30;99.90
47336;DHT22;33068;51.990;5.926;2023-08-17T07:05:20;17.70;99.90
47336;DHT22;33068;51.990;5.926;2023-08-17T07:07:47;17.70;99.90
47336;DHT22;33068;51.990;5.926;2023-08-17T07:10:13;17.50;99.90
47336;DHT22;33068;51.990;5.926;2023-08-17T07:12:40;17.90;99.90
47336;DHT22;33068;51.990;5.926;2023-08-17T07:15:07;18.00;99.90
47336;DHT22;33068;51.990;5.926;2023-08-17T07:17:34;18.00;99.90
47336;DHT22;33068;51.990;5.926;2023-08-17T07:20:02;18.00;99.90
47336;DHT22;33068;51.990;5.926;2023-08-17T07:22:29;17.90;99.90
47336;DHT22;33068;51.990;5.926;2023-08-17T07:24:56;18.00;99.90
47336;DHT22;33068;51.990;5.926;2023-08-17T07:27:23;18.00;99.90
47336;DHT22;33068;51.990;5.926;2023-08-17T07:29:49;18.10;99.90
47336;DHT22;33068;51.990;5.926;2023-08-17T07:32:15;18.10;99.90
47336;DHT22;33068;51.990;5.926;2023-08-17T07:34:42;18.10;99.90
47336;DHT22;33068;51.990;5.926;2023-08-17T07:37:09;18.10;99.90
47336;DHT22;33068;51.990;5.926;2023-08-17T07:39:36;17.80;99.90
47336;DHT22;33068;51.990;5.926;2023-08-17T07:42:03;18.10;99.90
47336;DHT22;33068;51.990;5.926;2023-08-17T07:44:30;18.10;99.90
47336;DHT22;33068;51.990;5.926;2023-08-17T07:46:57;18.30;99.90
47336;DHT22;33068;51.990;5.926;2023-08-17T07:49:25;18.30;99.90
47336;DHT22;33068;51.990;5.926;2023-08-17T07:51:51;18.40;99.90
47336;DHT22;33068;51.990;5.926;2023-08-17T07:54:17;18.30;99.90
47336;DHT22;33068;51.990;5.926;2023-08-17T07:56:44;18.20;99.90
47336;DHT22;33068;51.990;5.926;2023-08-17T07:59:11;18.30;99.90
47336;DHT22;33068;51.990;5.926;2023-08-17T08:01:37;18.30;99.90
47336;DHT22;33068;51.990;5.926;2023-08-17T08:04:05;18.30;99.90
47336;DHT22;33068;51.990;5.926;2023-08-17T08:06:32;18.30;99.90
47336;DHT22;33068;51.990;5.926;2023-08-17T08:08:59;18.00;99.90
47336;DHT22;33068;51.990;5.926;2023-08-17T08:11:25;18.20;99.90
47336;DHT22;33068;51.990;5.926;2023-08-17T08:13:53;18.00;99.90
47336;DHT22;33068;51.990;5.926;2023-08-17T08:16:21;18.20;99.90
47336;DHT22;33068;51.990;5.926;2023-08-17T08:18:47;18.10;99.90
47336;DHT22;33068;51.990;5.926;2023-08-17T08:21:13;18.10;99.90
47336;DHT22;33068;51.990;5.926;2023-08-17T08:23:40;18.20;99.90
47336;DHT22;33068;51.990;5.926;2023-08-17T08:26:06;18.20;99.90
47336;DHT22;33068;51.990;5.926;2023-08-17T08:28:33;18.20;99.90
47336;DHT22;33068;51.990;5.926;2023-08-17T08:31:01;18.30;99.90
47336;DHT22;33068;51.990;5.926;2023-08-17T08:33:29;18.30;99.90
47336;DHT22;33068;51.990;5.926;2023-08-17T08:35:55;18.50;99.90
47336;DHT22;33068;51.990;5.926;2023-08-17T08:38:22;18.50;99.90
47336;DHT22;33068;51.990;5.926;2023-08-17T08:40:48;18.50;99.90
47336;DHT22;33068;51.990;5.926;2023-08-17T08:43:15;18.50;99.90
47336;DHT22;33068;51.990;5.926;2023-08-17T08:45:42;18.60;99.90
47336;DHT22;33068;51.990;5.926;2023-08-17T08:48:11;18.50;99.90
47336;DHT22;33068;51.990;5.926;2023-08-17T08:50:40;18.50;99.90
47336;DHT22;33068;51.990;5.926;2023-08-17T08:53:11;18.50;99.90
47336;DHT22;33068;51.990;5.926;2023-08-17T08:55:44;18.50;99.90
47336;DHT22;33068;51.990;5.926;2023-08-17T08:58:11;18.40;99.90
47336;DHT22;33068;51.990;5.926;2023-08-17T09:00:38;18.70;99.90
47336;DHT22;33068;51.990;5.926;2023-08-17T09:03:06;18.70;99.90
47336;DHT22;33068;51.990;5.926;2023-08-17T09:05:33;18.80;99.90
47336;DHT22;33068;51.990;5.926;2023-08-17T09:08:02;18.70;99.90
47336;DHT22;33068;51.990;5.926;2023-08-17T09:10:28;18.80;99.90
47336;DHT22;33068;51.990;5.926;2023-08-17T09:12:55;18.90;99.90
47336;DHT22;33068;51.990;5.926;2023-08-17T09:15:21;19.00;99.90
47336;DHT22;33068;51.990;5.926;2023-08-17T09:17:48;19.20;99.90
47336;DHT22;33068;51.990;5.926;2023-08-17T09:20:36;19.30;99.90
47336;DHT22;33068;51.990;5.926;2023-08-17T09:23:06;19.40;99.90
47336;DHT22;33068;51.990;5.926;2023-08-17T09:25:35;19.60;99.90
47336;DHT22;33068;51.990;5.926;2023-08-17T09:28:07;19.70;99.90
47336;DHT22;33068;51.990;5.926;2023-08-17T09:30:49;19.80;99.90
47336;DHT22;33068;51.990;5.926;2023-08-17T09:33:15;19.80;99.90
47336;DHT22;33068;51.990;5.926;2023-08-17T09:35:42;19.80;99.90
47336;DHT22;33068;51.990;5.926;2023-08-17T09:38:09;19.70;99.90
47336;DHT22;33068;51.990;5.926;2023-08-17T09:40:36;19.70;99.90
47336;DHT22;33068;51.990;5.926;2023-08-17T09:43:03;19.80;99.90
47336;DHT22;33068;51.990;5.926;2023-08-17T09:45:30;19.70;99.90
47336;DHT22;33068;51.990;5.926;2023-08-17T09:47:59;19.80;99.90
47336;DHT22;33068;51.990;5.926;2023-08-17T09:50:25;19.80;99.90
47336;DHT22;33068;51.990;5.926;2023-08-17T09:52:53;19.80;99.90
47336;DHT22;33068;51.990;5.926;2023-08-17T09:55:21;19.80;99.90
47336;DHT22;33068;51.990;5.926;2023-08-17T09:57:49;19.90;99.90
47336;DHT22;33068;51.990;5.926;2023-08-17T10:00:15;19.90;99.90
47336;DHT22;33068;51.990;5.926;2023-08-17T10:02:43;20.10;99.90
47336;DHT22;33068;51.990;5.926;2023-08-17T10:05:12;19.90;99.90
47336;DHT22;33068;51.990;5.926;2023-08-17T10:07:41;20.00;99.90
47336;DHT22;33068;51.990;5.926;2023-08-17T10:10:09;20.10;99.90
47336;DHT22;33068;51.990;5.926;2023-08-17T10:12:45;20.10;99.90
47336;DHT22;33068;51.990;5.926;2023-08-17T10:15:16;20.10;99.90
47336;DHT22;33068;51.990;5.926;2023-08-17T10:17:52;20.00;99.90
47336;DHT22;33068;51.990;5.926;2023-08-17T10:20:19;19.90;99.90
47336;DHT22;33068;51.990;5.926;2023-08-17T10:22:51;19.90;99.90
47336;DHT22;33068;51.990;5.926;2023-08-17T10:25:19;19.90;99.90
47336;DHT22;33068;51.990;5.926;2023-08-17T10:27:47;19.90;99.90
47336;DHT22;33068;51.990;5.926;2023-08-17T10:30:15;19.90;99.90
47336;DHT22;33068;51.990;5.926;2023-08-17T10:32:41;19.90;99.90
47336;DHT22;33068;51.990;5.926;2023-08-17T10:35:11;19.50;99.90
47336;DHT22;33068;51.990;5.926;2023-08-17T10:37:38;19.80;99.90
47336;DHT22;33068;51.990;5.926;2023-08-17T10:40:07;19.70;99.90
47336;DHT22;33068;51.990;5.926;2023-08-17T10:42:34;19.70;99.90
47336;DHT22;33068;51.990;5.926;2023-08-17T10:45:25;19.60;99.90
47336;DHT22;33068;51.990;5.926;2023-08-17T10:48:00;19.70;99.90
47336;DHT22;33068;51.990;5.926;2023-08-17T10:50:27;19.70;99.90
47336;DHT22;33068;51.990;5.926;2023-08-17T10:52:54;19.70;99.90
47336;DHT22;33068;51.990;5.926;2023-08-17T10:55:35;19.70;99.90
47336;DHT22;33068;51.990;5.926;2023-08-17T10:58:03;19.90;99.90
47336;DHT22;33068;51.990;5.926;2023-08-17T11:00:34;19.80;99.90
47336;DHT22;33068;51.990;5.926;2023-08-17T11:03:06;20.00;99.90
47336;DHT22;33068;51.990;5.926;2023-08-17T11:05:37;19.90;99.90
47336;DHT22;33068;51.990;5.926;2023-08-17T11:08:05;20.00;99.90
47336;DHT22;33068;51.990;5.926;2023-08-17T11:10:31;19.90;99.90
47336;DHT22;33068;51.990;5.926;2023-08-17T11:12:59;19.80;99.90
47336;DHT22;33068;51.990;5.926;2023-08-17T11:15:26;19.70;99.90
47336;DHT22;33068;51.990;5.926;2023-08-17T11:17:54;19.80;99.90
47336;DHT22;33068;51.990;5.926;2023-08-17T11:20:23;19.80;99.90
47336;DHT22;33068;51.990;5.926;2023-08-17T11:22:50;19.90;99.90
47336;DHT22;33068;51.990;5.926;2023-08-17T11:25:17;20.00;99.90
47336;DHT22;33068;51.990;5.926;2023-08-17T11:27:43;20.00;99.90
47336;DHT22;33068;51.990;5.926;2023-08-17T11:30:11;20.00;99.90
47336;DHT22;33068;51.990;5.926;2023-08-17T11:32:38;20.00;99.90
47336;DHT22;33068;51.990;5.926;2023-08-17T11:35:06;20.30;99.90
47336;DHT22;33068;51.990;5.926;2023-08-17T11:37:33;20.40;99.90
47336;DHT22;33068;51.990;5.926;2023-08-17T11:39:59;20.40;99.90
47336;DHT22;33068;51.990;5.926;2023-08-17T11:42:26;20.50;99.90
47336;DHT22;33068;51.990;5.926;2023-08-17T11:44:52;20.40;99.90
47336;DHT22;33068;51.990;5.926;2023-08-17T11:47:19;20.10;99.90
47336;DHT22;33068;51.990;5.926;2023-08-17T11:49:47;20.10;99.90
47336;DHT22;33068;51.990;5.926;2023-08-17T11:52:15;20.10;99.90
47336;DHT22;33068;51.990;5.926;2023-08-17T11:54:42;19.90;99.90
47336;DHT22;33068;51.990;5.926;2023-08-17T11:57:08;20.10;99.90
47336;DHT22;33068;51.990;5.926;2023-08-17T11:59:35;20.00;99.90
47336;DHT22;33068;51.990;5.926;2023-08-17T12:02:01;20.00;99.90
47336;DHT22;33068;51.990;5.926;2023-08-17T12:04:28;20.10;99.90
47336;DHT22;33068;51.990;5.926;2023-08-17T12:06:55;19.90;99.90
47336;DHT22;33068;51.990;5.926;2023-08-17T12:09:24;20.00;99.90
47336;DHT22;33068;51.990;5.926;2023-08-17T12:11:58;20.00;99.90
47336;DHT22;33068;51.990;5.926;2023-08-17T12:14:26;19.80;99.90
47336;DHT22;33068;51.990;5.926;2023-08-17T12:16:54;20.10;99.90
47336;DHT22;33068;51.990;5.926;2023-08-17T12:19:21;19.80;99.90
47336;DHT22;33068;51.990;5.926;2023-08-17T12:21:48;20.20;99.90
47336;DHT22;33068;51.990;5.926;2023-08-17T12:24:14;20.20;99.90
47336;DHT22;33068;51.990;5.926;2023-08-17T12:26:43;20.10;99.90
47336;DHT22;33068;51.990;5.926;2023-08-17T12:29:09;20.20;99.90
47336;DHT22;33068;51.990;5.926;2023-08-17T12:31:36;20.30;99.90
47336;DHT22;33068;51.990;5.926;2023-08-17T12:34:02;20.20;99.90
47336;DHT22;33068;51.990;5.926;2023-08-17T12:36:30;20.20;99.90
47336;DHT22;33068;51.990;5.926;2023-08-17T12:38:57;19.90;99.90
47336;DHT22;33068;51.990;5.926;2023-08-17T12:41:23;20.00;99.90
47336;DHT22;33068;51.990;5.926;2023-08-17T12:43:51;20.30;99.90
47336;DHT22;33068;51.990;5.926;2023-08-17T12:46:19;20.00;99.90
47336;DHT22;33068;51.990;5.926;2023-08-17T12:48:46;20.00;99.90
47336;DHT22;33068;51.990;5.926;2023-08-17T12:51:12;20.00;99.90
47336;DHT22;33068;51.990;5.926;2023-08-17T12:53:38;20.10;99.90
47336;DHT22;33068;51.990;5.926;2023-08-17T12:56:05;20.10;99.90
47336;DHT22;33068;51.990;5.926;2023-08-17T12:58:31;20.10;99.90
47336;DHT22;33068;51.990;5.926;2023-08-17T13:00:58;20.10;99.90
47336;DHT22;33068;51.990;5.926;2023-08-17T13:03:25;20.00;99.90
47336;DHT22;33068;51.990;5.926;2023-08-17T13:05:51;20.20;99.90
47336;DHT22;33068;51.990;5.926;2023-08-17T13:08:18;20.20;99.90
47336;DHT22;33068;51.990;5.926;2023-08-17T13:10:44;20.10;99.90
47336;DHT22;33068;51.990;5.926;2023-08-17T13:13:11;20.20;99.90
47336;DHT22;33068;51.990;5.926;2023-08-17T13:15:37;20.30;99.90
47336;DHT22;33068;51.990;5.926;2023-08-17T13:18:06;20.10;99.90
47336;DHT22;33068;51.990;5.926;2023-08-17T13:20:32;20.30;99.90
47336;DHT22;33068;51.990;5.926;2023-08-17T13:22:58;19.90;99.90
47336;DHT22;33068;51.990;5.926;2023-08-17T13:25:25;20.30;99.90
47336;DHT22;33068;51.990;5.926;2023-08-17T13:27:51;20.40;99.90
47336;DHT22;33068;51.990;5.926;2023-08-17T13:30:18;20.30;99.90
47336;DHT22;33068;51.990;5.926;2023-08-17T13:32:44;20.30;99.90
47336;DHT22;33068;51.990;5.926;2023-08-17T13:35:11;20.20;99.90
47336;DHT22;33068;51.990;5.926;2023-08-17T13:37:38;20.30;99.90
47336;DHT22;33068;51.990;5.926;2023-08-17T13:40:05;20.40;99.90
47336;DHT22;33068;51.990;5.926;2023-08-17T13:42:32;20.40;99.90
47336;DHT22;33068;51.990;5.926;2023-08-17T13:44:58;20.40;99.90
47336;DHT22;33068;51.990;5.926;2023-08-17T13:47:26;20.40;99.90
47336;DHT22;33068;51.990;5.926;2023-08-17T13:49:52;20.20;99.90
47336;DHT22;33068;51.990;5.926;2023-08-17T13:52:19;20.40;99.90
47336;DHT22;33068;51.990;5.926;2023-08-17T13:54:45;20.50;99.90
47336;DHT22;33068;51.990;5.926;2023-08-17T13:57:12;20.40;99.90
47336;DHT22;33068;51.990;5.926;2023-08-17T13:59:38;20.50;99.90
47336;DHT22;33068;51.990;5.926;2023-08-17T14:02:05;20.40;99.90
47336;DHT22;33068;51.990;5.926;2023-08-17T14:04:32;20.20;99.90
47336;DHT22;33068;51.990;5.926;2023-08-17T14:06:58;20.30;99.90
47336;DHT22;33068;51.990;5.926;2023-08-17T14:09:25;20.40;99.90
47336;DHT22;33068;51.990;5.926;2023-08-17T14:11:51;20.30;99.90
47336;DHT22;33068;51.990;5.926;2023-08-17T14:14:18;20.20;99.90
47336;DHT22;33068;51.990;5.926;2023-08-17T14:16:44;20.20;99.90
47336;DHT22;33068;51.990;5.926;2023-08-17T14:19:11;20.20;99.90
47336;DHT22;33068;51.990;5.926;2023-08-17T14:21:37;20.30;99.90
47336;DHT22;33068;51.990;5.926;2023-08-17T14:24:04;20.30;99.90
47336;DHT22;33068;51.990;5.926;2023-08-17T14:26:33;20.20;99.90
47336;DHT22;33068;51.990;5.926;2023-08-17T14:28:59;20.10;99.90
47336;DHT22;33068;51.990;5.926;2023-08-17T14:31:26;20.00;99.90
47336;DHT22;33068;51.990;5.926;2023-08-17T14:33:54;20.10;99.90
47336;DHT22;33068;51.990;5.926;2023-08-17T14:36:20;20.10;99.90
47336;DHT22;33068;51.990;5.926;2023-08-17T14:38:46;20.20;99.90
47336;DHT22;33068;51.990;5.926;2023-08-17T14:41:13;20.40;99.90
47336;DHT22;33068;51.990;5.926;2023-08-17T14:43:40;20.40;99.90
47336;DHT22;33068;51.990;5.926;2023-08-17T14:46:06;20.40;99.90
47336;DHT22;33068;51.990;5.926;2023-08-17T14:48:33;20.40;99.90
47336;DHT22;33068;51.990;5.926;2023-08-17T14:50:59;20.30;99.90
47336;DHT22;33068;51.990;5.926;2023-08-17T14:53:26;20.30;99.90
47336;DHT22;33068;51.990;5.926;2023-08-17T14:55:52;20.20;99.90
47336;DHT22;33068;51.990;5.926;2023-08-17T14:58:19;20.20;99.90
47336;DHT22;33068;51.990;5.926;2023-08-17T15:00:46;20.40;99.90
47336;DHT22;33068;51.990;5.926;2023-08-17T15:03:12;20.70;99.90
47336;DHT22;33068;51.990;5.926;2023-08-17T15:05:39;20.50;99.90
47336;DHT22;33068;51.990;5.926;2023-08-17T15:08:05;20.50;99.90
47336;DHT22;33068;51.990;5.926;2023-08-17T15:10:32;20.50;99.90
47336;DHT22;33068;51.990;5.926;2023-08-17T15:13:00;20.70;99.90
47336;DHT22;33068;51.990;5.926;2023-08-17T15:15:26;20.70;99.90
47336;DHT22;33068;51.990;5.926;2023-08-17T15:17:54;20.70;99.90
47336;DHT22;33068;51.990;5.926;2023-08-17T15:20:20;20.60;99.90
47336;DHT22;33068;51.990;5.926;2023-08-17T15:22:47;20.40;99.90
47336;DHT22;33068;51.990;5.926;2023-08-17T15:25:13;20.30;99.90
47336;DHT22;33068;51.990;5.926;2023-08-17T15:27:39;20.20;99.90
47336;DHT22;33068;51.990;5.926;2023-08-17T15:30:07;20.30;99.90